createdAt,value
2022-11-23T00:02:30.006Z,6.50
2022-11-23T00:05:16.974Z,6.40
2022-11-23T00:08:03.395Z,6.40
2022-11-23T00:10:49.814Z,6.10
2022-11-23T00:13:36.675Z,5.80
2022-11-23T00:16:26.201Z,5.70
2022-11-23T00:19:12.907Z,5.50
2022-11-23T00:21:59.676Z,5.50
2022-11-23T00:24:46.316Z,5.60
2022-11-23T00:27:33.122Z,5.60
2022-11-23T00:30:19.729Z,5.70
2022-11-23T00:33:07.754Z,5.90
2022-11-23T00:36:01.454Z,6.00
2022-11-23T00:38:51.373Z,6.00
2022-11-23T00:41:37.946Z,6.20
2022-11-23T00:44:24.623Z,6.20
2022-11-23T00:47:10.920Z,6.20
2022-11-23T00:49:58.705Z,6.10
2022-11-23T00:52:45.099Z,6.00
2022-11-23T00:55:31.941Z,6.00
2022-11-23T00:58:18.262Z,6.00
2022-11-23T01:01:07.935Z,6.00
2022-11-23T01:03:58.169Z,6.00
2022-11-23T01:06:50.318Z,5.90
2022-11-23T01:09:36.744Z,5.90
2022-11-23T01:12:23.131Z,5.90
2022-11-23T01:15:10.555Z,5.90
2022-11-23T01:17:56.978Z,6.00
2022-11-23T01:20:43.297Z,5.90
2022-11-23T01:23:31.543Z,5.90
2022-11-23T01:26:18.224Z,5.80
2022-11-23T01:29:04.957Z,5.80
2022-11-23T01:31:51.708Z,5.80
2022-11-23T01:34:38.525Z,5.80
2022-11-23T01:37:24.932Z,5.70
2022-11-23T01:40:14.115Z,5.80
2022-11-23T01:43:02.090Z,5.80
2022-11-23T01:45:58.361Z,5.90
2022-11-23T01:48:50.001Z,5.90
2022-11-23T01:51:40.222Z,6.00
2022-11-23T01:54:31.058Z,5.90
2022-11-23T01:57:22.462Z,5.80
2022-11-23T02:00:10.366Z,5.80
2022-11-23T02:03:01.906Z,5.80
2022-11-23T02:05:52.123Z,5.70
2022-11-23T02:08:38.458Z,5.80
2022-11-23T02:11:24.904Z,5.90
2022-11-23T02:14:13.143Z,5.90
2022-11-23T02:17:00.196Z,5.90
2022-11-23T02:19:57.163Z,6.00
2022-11-23T02:22:57.931Z,6.00
2022-11-23T02:26:02.639Z,6.10
2022-11-23T02:28:55.315Z,6.10
2022-11-23T02:31:42.105Z,6.20
2022-11-23T02:34:28.978Z,6.30
2022-11-23T02:37:15.304Z,6.30
2022-11-23T02:40:05.690Z,6.30
2022-11-23T02:42:55.677Z,6.30
2022-11-23T02:45:47.402Z,6.20
2022-11-23T02:48:35.410Z,6.30
2022-11-23T02:51:23.745Z,6.30
2022-11-23T02:54:10.652Z,6.40
2022-11-23T02:56:58.110Z,6.40
2022-11-23T02:59:45.898Z,6.50
2022-11-23T03:02:32.808Z,6.40
2022-11-23T03:05:19.424Z,6.50
2022-11-23T03:08:11.537Z,6.40
2022-11-23T03:11:02.196Z,6.40
2022-11-23T03:13:49.819Z,6.40
2022-11-23T03:16:41.542Z,6.50
2022-11-23T03:19:28.386Z,6.20
2022-11-23T03:22:15.911Z,6.00
2022-11-23T03:25:02.424Z,5.70
2022-11-23T03:27:49.306Z,5.60
2022-11-23T03:30:36.426Z,5.50
2022-11-23T03:33:26.755Z,5.60
2022-11-23T03:36:13.513Z,5.60
2022-11-23T03:39:03.949Z,5.70
2022-11-23T03:42:15.759Z,5.80
2022-11-23T03:45:02.091Z,5.90
2022-11-23T03:47:49.322Z,6.00
2022-11-23T03:50:37.273Z,6.00
2022-11-23T03:53:23.897Z,6.10
2022-11-23T03:56:11.550Z,6.20
2022-11-23T03:59:02.730Z,6.30
2022-11-23T04:01:49.322Z,6.30
2022-11-23T04:04:42.386Z,6.30
2022-11-23T04:07:52.889Z,6.20
2022-11-23T04:10:39.700Z,6.10
2022-11-23T04:13:34.298Z,6.20
2022-11-23T04:16:22.413Z,6.20
2022-11-23T04:19:15.134Z,6.20
2022-11-23T04:22:02.750Z,6.20
2022-11-23T04:24:56.327Z,6.20
2022-11-23T04:27:42.654Z,6.30
2022-11-23T04:30:29.635Z,6.40
2022-11-23T04:33:18.828Z,6.40
2022-11-23T04:36:05.902Z,6.50
2022-11-23T04:38:53.143Z,6.50
2022-11-23T04:41:47.291Z,6.40
2022-11-23T04:44:34.131Z,6.50
2022-11-23T04:47:24.498Z,6.50
2022-11-23T04:50:11.609Z,6.50
2022-11-23T04:52:57.908Z,6.50
2022-11-23T04:55:53.152Z,6.40
2022-11-23T04:58:41.586Z,6.50
2022-11-23T05:01:28.372Z,6.50
2022-11-23T05:04:35.356Z,6.50
2022-11-23T05:07:23.045Z,6.60
2022-11-23T05:10:15.067Z,6.60
2022-11-23T05:13:02.597Z,6.50
2022-11-23T05:15:51.360Z,6.60
2022-11-23T05:18:43.683Z,6.70
2022-11-23T05:21:30.910Z,6.70
2022-11-23T05:24:18.931Z,6.70
2022-11-23T05:27:17.942Z,6.60
2022-11-23T05:30:06.522Z,6.70
2022-11-23T05:32:54.634Z,6.70
2022-11-23T05:35:42.475Z,6.70
2022-11-23T05:38:29.622Z,6.80
2022-11-23T05:41:20.943Z,6.70
2022-11-23T05:44:11.221Z,6.60
2022-11-23T05:46:58.987Z,6.70
2022-11-23T05:49:50.392Z,6.60
2022-11-23T05:52:42.738Z,6.70
2022-11-23T05:55:29.693Z,6.70
2022-11-23T05:58:17.412Z,6.60
2022-11-23T06:01:04.266Z,6.60
2022-11-23T06:03:55.301Z,6.60
2022-11-23T06:06:43.961Z,6.60
2022-11-23T06:09:31.293Z,6.50
2022-11-23T06:12:24.958Z,6.50
2022-11-23T06:15:12.204Z,6.40
2022-11-23T06:18:03.009Z,6.30
2022-11-23T06:21:01.090Z,6.40
2022-11-23T06:23:49.387Z,6.40
2022-11-23T06:26:36.678Z,6.40
2022-11-23T06:29:24.340Z,6.40
2022-11-23T06:32:11.930Z,6.40
2022-11-23T06:35:01.014Z,6.40
2022-11-23T06:37:51.248Z,6.30
2022-11-23T06:40:38.994Z,6.30
2022-11-23T06:43:25.862Z,6.20
2022-11-23T06:46:12.943Z,6.30
2022-11-23T06:49:01.523Z,6.20
2022-11-23T06:51:48.601Z,6.20
2022-11-23T06:54:35.162Z,6.10
2022-11-23T06:57:25.336Z,6.00
2022-11-23T07:00:14.859Z,6.00
2022-11-23T07:03:03.507Z,6.00
2022-11-23T07:06:07.205Z,5.90
2022-11-23T07:08:55.650Z,5.90
2022-11-23T07:11:51.849Z,5.80
2022-11-23T07:14:40.130Z,5.90
2022-11-23T07:17:26.566Z,6.00
2022-11-23T07:20:14.365Z,6.00
2022-11-23T07:23:02.318Z,5.90
2022-11-23T07:25:48.698Z,6.00
2022-11-23T07:28:36.059Z,6.00
2022-11-23T07:31:24.406Z,5.90
2022-11-23T07:34:11.390Z,6.10
2022-11-23T07:37:01.954Z,6.20
2022-11-23T07:39:57.774Z,6.10
2022-11-23T07:42:46.820Z,6.20
2022-11-23T07:45:36.704Z,6.10
2022-11-23T07:48:28.110Z,6.20
2022-11-23T07:51:19.482Z,6.10
2022-11-23T07:54:05.946Z,6.20
2022-11-23T07:56:52.337Z,6.20
2022-11-23T07:59:38.701Z,6.20
2022-11-23T08:02:25.178Z,6.30
2022-11-23T08:05:14.393Z,6.50
2022-11-23T08:08:01.770Z,6.60
2022-11-23T08:10:52.968Z,6.80
2022-11-23T08:13:40.276Z,6.80
2022-11-23T08:16:26.765Z,7.00
2022-11-23T08:19:13.178Z,7.20
2022-11-23T08:22:01.018Z,7.50
2022-11-23T08:24:48.014Z,7.60
2022-11-23T08:27:34.384Z,7.80
2022-11-23T08:30:21.246Z,8.10
2022-11-23T08:33:08.881Z,8.40
2022-11-23T08:35:55.170Z,8.70
2022-11-23T08:38:42.992Z,8.90
2022-11-23T08:41:29.555Z,9.10
2022-11-23T08:44:15.904Z,9.40
2022-11-23T08:47:02.454Z,9.60
2022-11-23T08:49:48.862Z,9.70
2022-11-23T08:52:35.364Z,9.90
2022-11-23T08:55:23.226Z,9.90
2022-11-23T08:58:13.355Z,9.70
2022-11-23T09:01:00.516Z,9.80
2022-11-23T09:03:47.249Z,9.90
2022-11-23T09:06:34.517Z,10.00
2022-11-23T09:09:21.104Z,9.90
2022-11-23T09:12:09.058Z,9.80
2022-11-23T09:14:55.462Z,9.70
2022-11-23T09:17:42.003Z,9.50
2022-11-23T09:20:28.573Z,9.60
2022-11-23T09:23:14.911Z,9.60
2022-11-23T09:26:01.701Z,9.50
2022-11-23T09:28:49.658Z,9.70
2022-11-23T09:31:36.804Z,9.70
2022-11-23T09:34:23.356Z,9.60
2022-11-23T09:37:09.756Z,9.70
2022-11-23T09:39:56.107Z,9.60
2022-11-23T09:43:01.955Z,9.70
2022-11-23T09:45:53.905Z,9.70
2022-11-23T09:48:52.319Z,9.60
2022-11-23T09:51:40.722Z,9.60
2022-11-23T09:54:32.089Z,9.70
2022-11-23T09:57:22.958Z,9.80
2022-11-23T10:00:20.060Z,9.80
2022-11-23T10:03:12.365Z,9.90
2022-11-23T10:06:03.664Z,10.00
2022-11-23T10:08:59.675Z,10.00
2022-11-23T10:12:18.252Z,10.00
2022-11-23T10:15:14.159Z,10.00
2022-11-23T10:18:14.968Z,10.00
2022-11-23T10:21:11.159Z,10.00
2022-11-23T10:24:05.694Z,10.00
2022-11-23T10:26:53.008Z,10.10
2022-11-23T10:29:40.305Z,10.20
2022-11-23T10:32:32.851Z,10.20
2022-11-23T10:35:28.495Z,10.30
2022-11-23T10:38:19.127Z,10.40
2022-11-23T10:41:08.921Z,10.40
2022-11-23T10:44:03.490Z,10.50
2022-11-23T10:46:50.174Z,10.50
2022-11-23T10:49:37.315Z,10.50
2022-11-23T10:52:30.754Z,10.70
2022-11-23T10:55:19.627Z,10.80
2022-11-23T10:58:06.068Z,10.90
2022-11-23T11:01:00.505Z,11.00
2022-11-23T11:03:47.373Z,11.20
2022-11-23T11:06:36.089Z,11.30
2022-11-23T11:09:25.375Z,11.40
2022-11-23T11:12:17.932Z,11.50
2022-11-23T11:15:16.976Z,11.70
2022-11-23T11:18:03.395Z,11.90
2022-11-23T11:20:58.254Z,12.10
2022-11-23T11:23:52.078Z,12.30
2022-11-23T11:26:49.580Z,12.30
2022-11-23T11:29:41.294Z,12.20
2022-11-23T11:32:33.066Z,12.30
2022-11-23T11:35:26.841Z,12.50
2022-11-23T11:38:17.790Z,12.70
2022-11-23T11:41:09.422Z,12.70
2022-11-23T11:44:03.791Z,12.50
2022-11-23T11:46:55.386Z,12.30
2022-11-23T11:49:46.828Z,12.30
2022-11-23T11:52:38.470Z,12.70
2022-11-23T11:55:30.964Z,12.60
2022-11-23T11:58:18.727Z,12.60
2022-11-23T12:01:15.923Z,12.40
2022-11-23T12:04:07.986Z,12.30
2022-11-23T12:07:05.951Z,12.30
2022-11-23T12:09:58.385Z,12.10
2022-11-23T12:12:45.006Z,12.20
2022-11-23T12:15:49.609Z,12.30
2022-11-23T12:18:52.966Z,12.50
2022-11-23T12:21:58.014Z,12.60
2022-11-23T12:24:59.012Z,12.50
2022-11-23T12:27:56.921Z,12.90
2022-11-23T12:30:55.416Z,13.00
2022-11-23T12:34:02.041Z,13.00
2022-11-23T12:37:11.399Z,13.00
2022-11-23T12:40:22.970Z,13.00
2022-11-23T12:43:15.046Z,12.80
2022-11-23T12:46:12.838Z,12.80
2022-11-23T12:49:13.207Z,12.70
2022-11-23T12:52:09.195Z,12.50
2022-11-23T12:55:02.425Z,12.50
2022-11-23T12:57:59.741Z,12.40
2022-11-23T13:00:50.811Z,12.10
2022-11-23T13:04:26.196Z,11.90
2022-11-23T13:08:00.761Z,11.90
2022-11-23T13:10:56.890Z,11.90
2022-11-23T13:13:59.148Z,11.80
2022-11-23T13:17:15.524Z,11.80
2022-11-23T13:20:21.750Z,11.70
2022-11-23T13:23:08.119Z,11.60
2022-11-23T13:26:15.208Z,11.30
2022-11-23T13:29:36.738Z,11.10
2022-11-23T13:32:46.146Z,11.00
2022-11-23T13:35:57.186Z,10.90
2022-11-23T13:38:44.845Z,10.80
2022-11-23T13:42:01.486Z,10.80
2022-11-23T13:44:48.218Z,10.70
2022-11-23T13:47:36.479Z,10.70
2022-11-23T13:50:27.474Z,10.70
2022-11-23T13:53:24.620Z,10.60
2022-11-23T13:56:34.470Z,10.60
2022-11-23T13:59:32.039Z,10.60
2022-11-23T14:02:28.773Z,10.50
2022-11-23T14:05:54.309Z,10.50
2022-11-23T14:08:43.616Z,10.40
2022-11-23T14:11:32.747Z,10.40
2022-11-23T14:14:23.445Z,10.40
2022-11-23T14:17:53.312Z,10.30
2022-11-23T14:20:50.666Z,10.20
2022-11-23T14:24:16.153Z,10.30
2022-11-23T14:27:46.139Z,10.30
2022-11-23T14:30:48.714Z,10.20
2022-11-23T14:33:42.947Z,10.30
2022-11-23T14:36:42.511Z,10.20
2022-11-23T14:39:57.459Z,10.10
2022-11-23T14:42:44.855Z,10.10
2022-11-23T14:45:34.560Z,10.00
2022-11-23T14:48:22.622Z,9.90
2022-11-23T14:51:14.516Z,9.90
2022-11-23T14:54:03.655Z,9.90
2022-11-23T14:56:52.895Z,9.80
2022-11-23T14:59:41.003Z,9.80
2022-11-23T15:02:35.461Z,9.80
2022-11-23T15:05:27.791Z,9.80
2022-11-23T15:08:18.465Z,9.80
2022-11-23T15:11:10.777Z,9.80
2022-11-23T15:14:03.179Z,9.80
2022-11-23T15:16:49.939Z,9.70
2022-11-23T15:19:36.798Z,9.80
2022-11-23T15:22:24.462Z,9.80
2022-11-23T15:25:16.122Z,9.80
2022-11-23T15:28:02.487Z,9.90
2022-11-23T15:30:55.089Z,9.80
2022-11-23T15:33:48.076Z,9.90
2022-11-23T15:36:38.176Z,9.90
2022-11-23T15:39:26.100Z,9.90
2022-11-23T15:42:18.122Z,9.90
2022-11-23T15:45:05.022Z,9.90
2022-11-23T15:47:53.361Z,9.80
2022-11-23T15:50:53.122Z,9.80
2022-11-23T15:53:50.234Z,9.80
2022-11-23T15:56:39.302Z,9.80
2022-11-23T15:59:31.742Z,9.80
2022-11-23T16:02:22.308Z,9.80
2022-11-23T16:05:16.109Z,9.70
2022-11-23T16:08:03.312Z,9.80
2022-11-23T16:10:55.386Z,9.80
2022-11-23T16:13:41.652Z,9.80
2022-11-23T16:16:28.271Z,9.80
2022-11-23T16:19:24.755Z,9.80
2022-11-23T16:22:26.337Z,9.90
2022-11-23T16:25:25.610Z,9.90
2022-11-23T16:28:18.591Z,9.90
2022-11-23T16:31:05.300Z,9.80
2022-11-23T16:33:53.887Z,9.80
2022-11-23T16:36:40.363Z,9.80
2022-11-23T16:39:28.555Z,9.70
2022-11-23T16:42:15.988Z,9.70
2022-11-23T16:45:03.371Z,9.60
2022-11-23T16:47:55.037Z,9.60
2022-11-23T16:50:42.066Z,9.60
2022-11-23T16:53:30.185Z,9.50
2022-11-23T16:56:20.501Z,9.50
2022-11-23T16:59:07.370Z,9.40
2022-11-23T17:01:57.190Z,9.30
2022-11-23T17:04:44.526Z,9.20
2022-11-23T17:07:31.222Z,9.30
2022-11-23T17:10:18.119Z,9.30
2022-11-23T17:13:08.581Z,9.20
2022-11-23T17:15:56.114Z,9.30
2022-11-23T17:18:42.930Z,9.30
2022-11-23T17:21:29.612Z,9.40
2022-11-23T17:24:15.829Z,9.40
2022-11-23T17:27:02.268Z,9.40
2022-11-23T17:29:56.744Z,9.50
2022-11-23T17:32:43.474Z,9.40
2022-11-23T17:35:32.779Z,9.20
2022-11-23T17:38:26.007Z,9.00
2022-11-23T17:41:12.607Z,9.00
2022-11-23T17:43:59.946Z,9.00
2022-11-23T17:46:48.558Z,8.80
2022-11-23T17:49:35.268Z,8.70
2022-11-23T17:52:21.919Z,8.80
2022-11-23T17:55:10.814Z,8.80
2022-11-23T17:57:57.424Z,8.80
2022-11-23T18:00:43.816Z,8.70
2022-11-23T18:03:31.594Z,8.70
2022-11-23T18:06:20.223Z,8.70
2022-11-23T18:09:07.038Z,8.80
2022-11-23T18:11:53.603Z,8.80
2022-11-23T18:14:40.493Z,8.90
2022-11-23T18:17:27.161Z,8.80
2022-11-23T18:20:15.513Z,9.00
2022-11-23T18:23:02.362Z,8.90
2022-11-23T18:25:58.832Z,9.00
2022-11-23T18:28:45.466Z,9.00
2022-11-23T18:31:32.050Z,9.00
2022-11-23T18:34:18.723Z,9.10
2022-11-23T18:37:06.734Z,9.10
2022-11-23T18:39:53.451Z,9.10
2022-11-23T18:42:39.754Z,9.00
2022-11-23T18:45:26.246Z,9.10
2022-11-23T18:48:13.472Z,9.00
2022-11-23T18:51:01.229Z,9.00
2022-11-23T18:53:50.767Z,9.00
2022-11-23T18:56:37.445Z,9.00
2022-11-23T19:02:30.474Z,8.90
2022-11-23T19:05:16.790Z,8.80
2022-11-23T19:08:05.066Z,8.80
2022-11-23T19:10:53.264Z,8.70
2022-11-23T19:13:40.908Z,8.80
2022-11-23T19:16:30.051Z,8.80
2022-11-23T19:19:17.990Z,8.80
2022-11-23T19:22:04.659Z,8.80
2022-11-23T19:24:50.977Z,8.90
2022-11-23T19:27:38.849Z,8.90
2022-11-23T19:30:25.461Z,8.90
2022-11-23T19:33:11.828Z,8.80
2022-11-23T19:35:58.211Z,8.90
2022-11-23T19:38:45.754Z,8.90
2022-11-23T19:41:32.839Z,8.80
2022-11-23T19:44:20.565Z,8.90
2022-11-23T19:47:13.226Z,8.90
2022-11-23T19:50:02.013Z,8.80
2022-11-23T19:53:11.400Z,8.90
2022-11-23T19:56:02.546Z,8.90
2022-11-23T19:58:52.566Z,8.90
2022-11-23T20:01:40.653Z,8.90
2022-11-23T20:04:27.042Z,9.00
2022-11-23T20:07:13.409Z,9.00
2022-11-23T20:10:00.318Z,9.00
2022-11-23T20:12:46.745Z,9.00
2022-11-23T20:15:33.591Z,9.00
2022-11-23T20:18:24.450Z,9.00
2022-11-23T20:21:17.117Z,9.00
2022-11-23T20:24:05.984Z,9.00
2022-11-23T20:26:52.841Z,9.10
2022-11-23T20:29:40.258Z,9.10
2022-11-23T20:32:27.136Z,9.10
2022-11-23T20:35:15.040Z,9.10
2022-11-23T20:38:01.751Z,9.10
2022-11-23T20:40:48.215Z,9.10
2022-11-23T20:43:34.675Z,9.10
2022-11-23T20:46:45.546Z,9.00
2022-11-23T20:49:27.476Z,9.00
2022-11-23T20:52:15.268Z,8.90
2022-11-23T20:55:01.680Z,8.90
2022-11-23T20:57:47.971Z,8.90
2022-11-23T21:00:34.287Z,8.90
2022-11-23T21:03:20.754Z,9.00
2022-11-23T21:06:09.307Z,9.00
2022-11-23T21:08:57.496Z,9.00
2022-11-23T21:12:01.006Z,9.00
2022-11-23T21:14:47.914Z,9.00
2022-11-23T21:17:34.579Z,9.00
2022-11-23T21:20:21.106Z,9.00
2022-11-23T21:23:07.749Z,9.00
2022-11-23T21:25:55.417Z,9.00
2022-11-23T21:28:43.251Z,9.00
2022-11-23T21:31:30.036Z,9.00
2022-11-23T21:34:19.237Z,9.10
2022-11-23T21:37:05.724Z,9.10
2022-11-23T21:39:53.230Z,9.10
2022-11-23T21:42:41.317Z,9.10
2022-11-23T21:45:27.779Z,9.10
2022-11-23T21:48:14.168Z,9.10
2022-11-23T21:51:01.901Z,9.20
2022-11-23T21:53:48.331Z,9.20
2022-11-23T21:56:34.777Z,9.20
2022-11-23T21:59:23.292Z,9.30
2022-11-23T22:02:11.729Z,9.30
2022-11-23T22:04:58.231Z,9.30
2022-11-23T22:07:55.034Z,9.30
2022-11-23T22:10:51.370Z,9.30
2022-11-23T22:13:39.407Z,9.30
2022-11-23T22:16:28.721Z,9.30
2022-11-23T22:19:17.333Z,9.30
2022-11-23T22:22:07.257Z,9.40
2022-11-23T22:24:53.674Z,9.30
2022-11-23T22:27:40.036Z,9.40
2022-11-23T22:30:26.450Z,9.40
2022-11-23T22:33:14.185Z,9.50
2022-11-23T22:36:01.509Z,9.50
2022-11-23T22:38:48.722Z,9.50
2022-11-23T22:41:37.356Z,9.50
2022-11-23T22:44:24.527Z,9.50
2022-11-23T22:47:10.879Z,9.50
2022-11-23T22:49:59.324Z,9.40
2022-11-23T22:52:46.027Z,9.40
2022-11-23T22:55:32.561Z,9.40
2022-11-23T22:58:19.600Z,9.40
2022-11-23T23:01:08.266Z,9.30
2022-11-23T23:03:56.042Z,9.40
2022-11-23T23:06:44.444Z,9.30
2022-11-23T23:09:30.730Z,9.30
2022-11-23T23:12:17.059Z,9.30
2022-11-23T23:15:03.998Z,9.40
2022-11-23T23:17:50.478Z,9.30
2022-11-23T23:20:37.730Z,9.30
2022-11-23T23:23:25.565Z,9.30
2022-11-23T23:26:13.551Z,9.30
2022-11-23T23:29:01.477Z,9.40
2022-11-23T23:31:48.249Z,9.30
2022-11-23T23:34:35.271Z,9.30
2022-11-23T23:37:21.763Z,9.30
2022-11-23T23:40:10.347Z,9.30
2022-11-23T23:42:58.462Z,9.30
2022-11-23T23:45:45.230Z,9.30
2022-11-23T23:48:33.277Z,9.30
2022-11-23T23:51:22.101Z,9.30
2022-11-23T23:54:08.885Z,9.30
2022-11-23T23:56:56.660Z,9.30
2022-11-23T23:59:43.306Z,9.30
